TimeEST,TemperatureF,Dew PointF,Humidity,Sea Level PressureIn,VisibilityMPH,Wind Direction,Wind SpeedMPH,Gust SpeedMPH,PrecipitationIn,Events,Conditions,WindDirDegrees,DateUTC
12:53 AM,53.1,39.0,59,30.15,10.0,SSE,3.5,-,N/A,,Clear,150,2012-11-10 05:53:00
1:53 AM,54.0,39.0,57,30.15,10.0,SE,5.8,-,N/A,,Clear,140,2012-11-10 06:53:00
2:53 AM,51.1,39.0,63,30.16,10.0,Calm,Calm,-,N/A,,Clear,0,2012-11-10 07:53:00
3:53 AM,48.0,39.0,71,30.18,10.0,Calm,Calm,-,N/A,,Clear,0,2012-11-10 08:53:00
4:53 AM,44.1,37.9,79,30.20,10.0,Calm,Calm,-,N/A,,Clear,0,2012-11-10 09:53:00
5:53 AM,45.0,37.9,76,30.22,10.0,Calm,Calm,-,N/A,,Clear,0,2012-11-10 10:53:00
6:53 AM,42.8,37.4,81,30.23,10.0,SSE,3.5,-,N/A,,Clear,160,2012-11-10 11:53:00
7:53 AM,50.0,39.0,66,30.23,10.0,SSE,3.5,-,N/A,,Clear,160,2012-11-10 12:53:00
8:53 AM,55.0,39.9,57,30.24,10.0,South,6.9,-,N/A,,Clear,170,2012-11-10 13:53:00
9:53 AM,59.0,42.1,53,30.23,10.0,SSW,6.9,-,N/A,,Clear,200,2012-11-10 14:53:00
10:53 AM,63.0,44.1,50,30.23,10.0,South,9.2,-,N/A,,Clear,170,2012-11-10 15:53:00
11:53 AM,66.9,46.0,47,30.21,10.0,South,8.1,-,N/A,,Clear,180,2012-11-10 16:53:00
12:53 PM,69.1,46.9,45,30.17,10.0,South,10.4,19.6,N/A,,Clear,180,2012-11-10 17:53:00
1:53 PM,72.0,46.0,40,30.14,10.0,South,11.5,20.7,N/A,,Clear,170,2012-11-10 18:53:00
2:53 PM,73.0,45.0,37,30.12,10.0,South,10.4,17.3,N/A,,Clear,170,2012-11-10 19:53:00
3:53 PM,73.0,44.1,35,30.13,10.0,South,9.2,-,N/A,,Clear,180,2012-11-10 20:53:00
4:53 PM,71.1,43.0,36,30.14,10.0,South,6.9,17.3,N/A,,Clear,170,2012-11-10 21:53:00
5:53 PM,68.0,43.0,40,30.16,10.0,South,6.9,-,N/A,,Clear,170,2012-11-10 22:53:00
6:53 PM,64.9,42.1,43,30.17,10.0,SSE,4.6,-,N/A,,Clear,150,2012-11-10 23:53:00
7:53 PM,61.0,42.1,50,30.18,10.0,SSE,3.5,-,N/A,,Clear,150,2012-11-11 00:53:00
8:53 PM,57.9,43.0,58,30.19,10.0,SSE,3.5,-,N/A,,Clear,150,2012-11-11 01:53:00
9:53 PM,55.9,42.1,60,30.19,10.0,Calm,Calm,-,N/A,,Clear,0,2012-11-11 02:53:00
10:53 PM,53.6,42.8,67,30.19,10.0,SSE,3.5,-,N/A,,Clear,150,2012-11-11 03:53:00
11:53 PM,55.9,42.1,60,30.18,10.0,Calm,Calm,-,N/A,,Clear,0,2012-11-11 04:53:00